Terminal Aerodrome Forecast
Issued by NWS St Louis, MO

Home | Current Version | Previous Version | Text Only | Print | Product List | Glossary On
Versions: 1 2 3 4 5 6 7 8 9 10 11 12 13 14 15 16 17 18 19 20 21 22 23 24 25 26 27
000
FTUS43 KLSX 021100
TAFCOU
TAF
KCOU 021126Z 0212/0312 VRB03KT 3SM BR BKN250
      TEMPO 0212/0213 2SM BR
     FM021400 09005KT P6SM BKN250
     FM030200 13007KT P6SM BKN040
     FM030800 15010KT P6SM VCSH OVC007=

USA.gov is the U.S. government's official web portal to all federal, state and local government web resources and services.